LiveATC.Net - Listen to live air traffic control over the Internet!


ICAO: ENKB  IATA: KSU   Airport: Kristiansund Kvernberget Airport
City: Kristiansund
Country: Norway   Continent: Europe
ENKB METAR Weather: ENKB 261750Z VRB03KT 9999 VCSH FEW012 SCT039 BKN055 15/13 Q1012
ENKB Flight Activity (FlightAware)
ENKB Twr/App
Feed Status: UP   Listeners: 0
Listen right in your browser - requires Flash (in browser, requires Flash)
Click here to listen with your own player (launches your MP3 player)
ENKB Twr/App Audio Archives
FacilityFrequency
Kvernberget Approach121.200
Kvernberget Tower118.300


NOTICE

Unauthorized use prohibited. See LiveATC.net Terms of Service


Find LiveATC Audio Streams


Airport/ARTCC Code

Frequency
(e.g., 124.400, 128.75)
Site-wide search

Browse LiveATC Feeds
LiveATC Coverage Map
Top 50 LiveATC Feeds
Bad Weather Areas

LiveATC FAQ
Offer a LiveATC Feed
Contact LiveATC.net
Press Inquiries

LiveATC on iPhone
LiveATC on Android

Windows Phone
Windows 8/10

LiveATC Mobile
(Mobile browser)

ATC Audio Archives
Interesting Recordings

LiveATC Forums


Home Page
About LiveATC.net
Make a Donation
LiveATC Store

Terms of Use
Privacy Policy

Canadian Air Freqs

AIRMETs/SIGMETs

FAA Airport Status
Nat'l Airspace Status
Arrival Demand Charts


Server Software By:
Icecast.org
Liquidsoap